createdAt,value
2019-02-25T00:01:14.339Z,4.40
2019-02-25T00:03:41.081Z,4.40
2019-02-25T00:06:07.867Z,4.67
2019-02-25T00:08:34.609Z,5.20
2019-02-25T00:11:01.330Z,5.63
2019-02-25T00:13:28.066Z,5.30
2019-02-25T00:15:54.787Z,5.13
2019-02-25T00:18:21.557Z,5.23
2019-02-25T00:20:48.291Z,5.90
2019-02-25T00:23:15.019Z,5.40
2019-02-25T00:25:41.734Z,5.67
2019-02-25T00:28:08.465Z,5.20
2019-02-25T00:30:35.191Z,5.73
2019-02-25T00:33:01.940Z,5.73
2019-02-25T00:35:28.650Z,6.20
2019-02-25T00:37:55.398Z,5.20
2019-02-25T00:40:22.242Z,4.57
2019-02-25T00:42:48.960Z,6.00
2019-02-25T00:45:19.645Z,5.10
2019-02-25T00:47:46.293Z,6.00
2019-02-25T00:50:13.066Z,5.10
2019-02-25T00:52:39.836Z,6.27
2019-02-25T00:55:06.751Z,6.20
2019-02-25T00:57:33.494Z,4.90
2019-02-25T01:00:00.355Z,5.30
2019-02-25T01:02:27.122Z,6.03
2019-02-25T01:04:54.738Z,5.30
2019-02-25T01:07:21.470Z,5.20
2019-02-25T01:09:48.218Z,5.23
2019-02-25T01:12:14.933Z,5.73
2019-02-25T01:14:41.661Z,5.10
2019-02-25T01:17:08.394Z,5.60
2019-02-25T01:19:35.117Z,5.30
2019-02-25T01:22:01.840Z,5.40
2019-02-25T01:24:28.607Z,5.30
2019-02-25T01:26:55.329Z,5.60
2019-02-25T01:29:22.098Z,6.30
2019-02-25T01:31:48.818Z,5.57
2019-02-25T01:34:15.548Z,5.80
2019-02-25T01:36:42.474Z,5.00
2019-02-25T01:39:09.198Z,5.07
2019-02-25T01:41:35.921Z,5.50
2019-02-25T01:44:02.682Z,5.13
2019-02-25T01:46:29.440Z,5.40
2019-02-25T01:48:56.199Z,5.53
2019-02-25T01:51:22.909Z,5.80
2019-02-25T01:53:49.630Z,5.03
2019-02-25T01:56:16.346Z,5.20
2019-02-25T01:58:43.085Z,4.90
2019-02-25T02:01:09.810Z,4.87
2019-02-25T02:03:36.542Z,5.70
2019-02-25T02:06:03.277Z,5.53
2019-02-25T02:08:30.106Z,5.27
2019-02-25T02:10:56.809Z,5.40
2019-02-25T02:13:23.543Z,5.77
2019-02-25T02:15:50.270Z,5.33
2019-02-25T02:18:17.003Z,5.83
2019-02-25T02:20:43.710Z,4.23
2019-02-25T02:23:10.486Z,4.00
2019-02-25T02:25:37.202Z,5.33
2019-02-25T02:28:04.010Z,4.93
2019-02-25T02:30:30.739Z,5.10
2019-02-25T02:32:57.450Z,4.70
2019-02-25T02:35:24.191Z,4.80
2019-02-25T02:37:50.910Z,5.50
2019-02-25T02:40:17.750Z,5.73
2019-02-25T02:42:47.154Z,5.60
2019-02-25T02:45:17.712Z,5.30
2019-02-25T02:47:56.438Z,5.37
2019-02-25T02:50:24.807Z,5.30
2019-02-25T02:52:51.515Z,5.72
2019-02-25T02:55:18.290Z,5.70
2019-02-25T02:57:45.009Z,5.50
2019-02-25T03:00:13.843Z,5.20
2019-02-25T03:02:40.553Z,6.20
2019-02-25T03:05:09.281Z,5.63
2019-02-25T03:07:35.998Z,6.17
2019-02-25T03:10:03.249Z,5.20
2019-02-25T03:12:29.954Z,6.00
2019-02-25T03:14:56.694Z,5.77
2019-02-25T03:17:23.429Z,5.80
2019-02-25T03:19:50.161Z,6.07
2019-02-25T03:22:16.962Z,5.47
2019-02-25T03:24:43.742Z,6.70
2019-02-25T03:27:10.461Z,5.97
2019-02-25T03:29:37.194Z,5.43
2019-02-25T03:32:03.899Z,6.00
2019-02-25T03:34:30.627Z,5.60
2019-02-25T03:36:57.357Z,5.57
2019-02-25T03:39:24.158Z,5.87
2019-02-25T03:41:50.888Z,5.55
2019-02-25T03:44:17.632Z,6.77
2019-02-25T03:46:44.365Z,5.50
2019-02-25T03:49:11.079Z,5.63
2019-02-25T03:51:37.805Z,5.70
2019-02-25T03:54:04.527Z,6.00
2019-02-25T03:56:31.251Z,5.60
2019-02-25T03:58:57.977Z,5.57
2019-02-25T04:01:24.705Z,4.93
2019-02-25T04:03:51.426Z,5.60
2019-02-25T04:06:18.212Z,5.60
2019-02-25T04:08:44.885Z,5.30
2019-02-25T04:11:11.603Z,5.40
2019-02-25T04:13:38.313Z,4.87
2019-02-25T04:16:05.058Z,5.40
2019-02-25T04:18:31.771Z,6.20
2019-02-25T04:20:58.494Z,5.30
2019-02-25T04:23:25.234Z,5.27
2019-02-25T04:25:51.954Z,5.70
2019-02-25T04:28:18.688Z,5.30
2019-02-25T04:30:45.418Z,5.60
2019-02-25T04:33:12.143Z,5.60
2019-02-25T04:35:38.890Z,5.93
2019-02-25T04:38:05.627Z,5.07
2019-02-25T04:40:32.354Z,5.70
2019-02-25T04:42:59.083Z,5.97
2019-02-25T04:45:25.827Z,5.60
2019-02-25T04:47:52.555Z,5.30
2019-02-25T04:50:19.312Z,5.47
2019-02-25T04:52:46.048Z,6.33
2019-02-25T04:55:12.799Z,5.50
2019-02-25T04:57:39.526Z,5.87
2019-02-25T05:00:09.651Z,6.50
2019-02-25T05:02:36.394Z,5.70
2019-02-25T05:05:03.230Z,6.40
2019-02-25T05:07:29.939Z,5.40
2019-02-25T05:09:56.690Z,6.73
2019-02-25T05:12:23.413Z,6.30
2019-02-25T05:14:50.192Z,6.17
2019-02-25T05:17:16.965Z,5.77
2019-02-25T05:19:43.696Z,5.90
2019-02-25T05:22:10.442Z,5.80
2019-02-25T05:24:37.165Z,5.97
2019-02-25T05:27:03.926Z,5.23
2019-02-25T05:29:30.643Z,6.20
2019-02-25T05:31:57.409Z,5.80
2019-02-25T05:34:24.126Z,6.08
2019-02-25T05:36:50.876Z,5.50
2019-02-25T05:39:17.606Z,6.10
2019-02-25T05:41:44.347Z,5.87
2019-02-25T05:44:11.078Z,6.30
2019-02-25T05:46:37.842Z,5.57
2019-02-25T05:49:04.563Z,5.97
2019-02-25T05:51:31.309Z,5.60
2019-02-25T05:53:58.049Z,5.20
2019-02-25T05:56:24.806Z,5.30
2019-02-25T05:58:51.533Z,5.10
2019-02-25T06:01:18.307Z,5.23
2019-02-25T06:03:45.025Z,5.13
2019-02-25T06:06:11.773Z,5.17
2019-02-25T06:08:38.494Z,5.27
2019-02-25T06:11:05.320Z,5.30
2019-02-25T06:13:32.046Z,5.20
2019-02-25T06:15:58.758Z,5.00
2019-02-25T06:18:25.467Z,5.50
2019-02-25T06:20:52.219Z,4.60
2019-02-25T06:23:18.953Z,5.00
2019-02-25T06:25:45.685Z,5.50
2019-02-25T06:28:12.400Z,5.50
2019-02-25T06:30:39.163Z,5.47
2019-02-25T06:33:05.877Z,5.60
2019-02-25T06:35:32.611Z,5.30
2019-02-25T06:37:59.362Z,5.90
2019-02-25T06:40:26.101Z,6.50
2019-02-25T06:42:52.840Z,6.20
2019-02-25T06:45:20.405Z,6.43
2019-02-25T06:47:47.270Z,6.30
2019-02-25T06:50:14.007Z,6.10
2019-02-25T06:52:40.926Z,6.50
2019-02-25T06:55:09.482Z,5.80
2019-02-25T06:57:36.201Z,6.60
2019-02-25T07:00:04.621Z,6.83
2019-02-25T07:02:31.371Z,6.77
2019-02-25T07:05:05.021Z,6.23
2019-02-25T07:07:49.065Z,6.20
2019-02-25T07:10:21.509Z,6.40
2019-02-25T07:12:54.077Z,5.47
2019-02-25T07:15:29.968Z,5.20
2019-02-25T07:18:19.278Z,5.60
2019-02-25T07:20:52.994Z,5.10
2019-02-25T07:23:25.522Z,4.60
2019-02-25T07:26:00.698Z,5.80
2019-02-25T07:28:33.277Z,4.60
2019-02-25T07:31:11.885Z,4.57
2019-02-25T07:33:59.209Z,4.70
2019-02-25T07:36:45.564Z,5.55
2019-02-25T07:39:27.497Z,4.87
2019-02-25T07:41:59.998Z,5.50
2019-02-25T07:44:41.117Z,5.27
2019-02-25T07:47:12.997Z,4.80
2019-02-25T07:49:52.722Z,5.87
2019-02-25T07:52:28.982Z,5.57
2019-02-25T07:55:03.314Z,5.33
2019-02-25T07:57:37.545Z,5.40
2019-02-25T08:00:24.374Z,5.00
2019-02-25T08:03:03.733Z,4.80
2019-02-25T08:05:50.986Z,5.65
2019-02-25T08:08:30.253Z,5.30
2019-02-25T08:11:09.646Z,5.30
2019-02-25T08:13:44.730Z,5.13
2019-02-25T08:16:31.972Z,5.25
2019-02-25T08:19:19.219Z,6.03
2019-02-25T08:22:05.573Z,5.00
2019-02-25T08:24:41.395Z,4.57
2019-02-25T08:27:19.627Z,4.50
2019-02-25T08:30:01.420Z,4.03
2019-02-25T08:32:38.213Z,5.00
2019-02-25T08:35:16.269Z,4.40
2019-02-25T08:37:59.623Z,4.00
2019-02-25T08:40:43.259Z,4.37
2019-02-25T08:43:21.045Z,4.70
2019-02-25T08:45:54.642Z,4.67
2019-02-25T08:48:27.641Z,4.87
2019-02-25T08:50:56.211Z,5.28
2019-02-25T08:53:21.137Z,4.87
2019-02-25T08:55:47.922Z,4.60
2019-02-25T08:58:14.658Z,4.53
2019-02-25T09:00:41.370Z,4.60
2019-02-25T09:03:08.221Z,4.50
2019-02-25T09:05:34.946Z,4.50
2019-02-25T09:08:01.673Z,5.20
2019-02-25T09:10:28.398Z,4.73
2019-02-25T09:12:55.178Z,4.87
2019-02-25T09:15:21.901Z,5.00
2019-02-25T09:17:47.869Z,4.77
2019-02-25T09:20:14.651Z,4.40
2019-02-25T09:22:41.381Z,4.90
2019-02-25T09:25:08.418Z,5.40
2019-02-25T09:27:35.157Z,5.43
2019-02-25T09:30:01.910Z,5.58
2019-02-25T09:32:28.662Z,5.10
2019-02-25T09:34:55.390Z,5.20
2019-02-25T09:37:22.194Z,5.80
2019-02-25T09:39:48.915Z,4.43
2019-02-25T09:42:15.656Z,5.33
2019-02-25T09:44:42.378Z,4.60
2019-02-25T09:47:09.094Z,4.50
2019-02-25T09:49:35.981Z,5.10
2019-02-25T09:52:02.702Z,4.17
2019-02-25T09:54:29.434Z,5.20
2019-02-25T09:56:56.146Z,4.33
2019-02-25T09:59:22.886Z,4.30
2019-02-25T10:01:49.606Z,4.70
2019-02-25T10:04:16.350Z,4.67
2019-02-25T10:06:43.150Z,4.90
2019-02-25T10:09:09.906Z,5.20
2019-02-25T10:11:36.625Z,4.40
2019-02-25T10:14:03.390Z,5.13
2019-02-25T10:16:30.106Z,4.77
2019-02-25T10:18:56.865Z,5.13
2019-02-25T10:21:23.582Z,5.40
2019-02-25T10:23:50.329Z,5.10
2019-02-25T10:26:17.575Z,5.27
2019-02-25T10:28:44.309Z,3.60
2019-02-25T10:31:12.721Z,4.63
2019-02-25T10:33:37.819Z,4.20
2019-02-25T10:36:04.542Z,4.40
2019-02-25T10:38:31.277Z,4.40
2019-02-25T10:40:59.381Z,4.47
2019-02-25T10:43:26.112Z,4.37
2019-02-25T10:45:51.442Z,4.30
2019-02-25T10:48:19.951Z,4.23
2019-02-25T10:50:44.894Z,5.10
2019-02-25T10:53:13.577Z,4.60
2019-02-25T10:55:45.013Z,4.40
2019-02-25T10:58:09.605Z,4.87
2019-02-25T11:00:37.817Z,5.03
2019-02-25T11:03:03.194Z,5.20
2019-02-25T11:05:30.470Z,4.50
2019-02-25T11:07:56.806Z,4.97
2019-02-25T11:10:31.958Z,5.00
2019-02-25T11:12:59.932Z,4.20
2019-02-25T11:15:25.437Z,4.70
2019-02-25T11:17:53.792Z,5.77
2019-02-25T11:20:18.976Z,5.10
2019-02-25T11:22:46.164Z,4.87
2019-02-25T11:25:12.574Z,4.70
2019-02-25T11:27:40.009Z,4.70
2019-02-25T11:30:07.158Z,5.40
2019-02-25T11:32:33.972Z,5.25
2019-02-25T11:35:01.378Z,4.50
2019-02-25T11:37:27.431Z,5.40
2019-02-25T11:39:54.940Z,4.63
2019-02-25T11:42:21.094Z,4.63
2019-02-25T11:44:47.807Z,4.70
2019-02-25T11:47:14.550Z,4.60
2019-02-25T11:49:41.290Z,4.80
2019-02-25T11:52:08.061Z,4.30
2019-02-25T11:54:34.798Z,5.00
2019-02-25T11:57:01.598Z,4.95
2019-02-25T11:59:28.346Z,4.23
2019-02-25T12:01:55.281Z,4.33
2019-02-25T12:04:22.013Z,4.83
2019-02-25T12:06:48.762Z,4.57
2019-02-25T12:09:15.507Z,4.90
2019-02-25T12:11:42.227Z,4.63
2019-02-25T12:14:08.997Z,5.00
2019-02-25T12:16:35.725Z,4.23
2019-02-25T12:19:02.473Z,4.70
2019-02-25T12:21:29.206Z,4.87
2019-02-25T12:23:55.945Z,4.50
2019-02-25T12:26:22.662Z,4.37
2019-02-25T12:28:49.414Z,4.20
2019-02-25T12:31:16.137Z,4.50
2019-02-25T12:33:42.849Z,3.83
2019-02-25T12:36:09.583Z,4.30
2019-02-25T12:38:36.310Z,4.60
2019-02-25T12:41:03.038Z,4.10
2019-02-25T12:43:29.858Z,4.00
2019-02-25T12:45:56.639Z,4.10
2019-02-25T12:48:23.442Z,4.50
2019-02-25T12:50:50.206Z,4.60
2019-02-25T12:53:16.922Z,4.67
2019-02-25T12:55:43.658Z,4.17
2019-02-25T12:58:10.408Z,3.70
2019-02-25T13:00:37.143Z,3.90
2019-02-25T13:03:03.863Z,4.00
2019-02-25T13:05:30.622Z,4.87
2019-02-25T13:07:57.346Z,3.80
2019-02-25T13:10:24.098Z,3.57
2019-02-25T13:12:51.745Z,3.97
2019-02-25T13:15:17.560Z,2.97
2019-02-25T13:17:44.280Z,2.87
2019-02-25T13:20:11.053Z,2.33
2019-02-25T13:22:37.778Z,2.30
2019-02-25T13:25:07.885Z,2.30
2019-02-25T13:27:32.442Z,2.17
2019-02-25T13:29:59.299Z,2.23
2019-02-25T13:32:26.101Z,2.40
2019-02-25T13:34:52.837Z,2.70
2019-02-25T13:37:19.586Z,3.57
2019-02-25T13:39:46.341Z,2.50
2019-02-25T13:42:13.174Z,2.60
2019-02-25T13:44:40.025Z,2.70
2019-02-25T13:47:06.737Z,2.87
2019-02-25T13:49:33.494Z,2.70
2019-02-25T13:52:00.215Z,2.17
2019-02-25T13:54:29.214Z,2.93
2019-02-25T13:56:53.725Z,2.27
2019-02-25T13:59:20.458Z,2.77
2019-02-25T14:01:47.314Z,2.47
2019-02-25T14:04:14.034Z,3.00
2019-02-25T14:06:40.822Z,2.40
2019-02-25T14:09:08.127Z,2.30
2019-02-25T14:11:34.876Z,2.60
2019-02-25T14:14:01.594Z,3.50
2019-02-25T14:16:28.332Z,3.57
2019-02-25T14:18:55.086Z,3.00
2019-02-25T14:21:21.841Z,2.90
2019-02-25T14:23:48.663Z,2.03
2019-02-25T14:26:15.406Z,2.93
2019-02-25T14:28:42.146Z,2.60
2019-02-25T14:31:08.894Z,2.30
2019-02-25T14:33:35.998Z,2.63
2019-02-25T14:36:02.439Z,2.40
2019-02-25T14:38:29.926Z,2.30
2019-02-25T14:40:56.802Z,3.17
2019-02-25T14:43:24.965Z,3.30
2019-02-25T14:45:53.716Z,3.20
2019-02-25T14:48:20.329Z,2.90
2019-02-25T14:50:42.879Z,4.33
2019-02-25T14:53:11.394Z,3.27
2019-02-25T14:55:36.338Z,3.47
2019-02-25T14:58:05.318Z,4.27
2019-02-25T15:00:32.802Z,3.43
2019-02-25T15:02:56.623Z,3.70
2019-02-25T15:05:23.360Z,3.87
2019-02-25T15:07:51.161Z,3.80
2019-02-25T15:10:16.837Z,3.60
2019-02-25T15:12:43.585Z,4.07
2019-02-25T15:15:10.986Z,3.80
2019-02-25T15:17:37.729Z,3.67
2019-02-25T15:20:04.626Z,3.90
2019-02-25T15:22:32.035Z,3.73
2019-02-25T15:24:59.497Z,3.70
2019-02-25T15:27:24.942Z,4.00
2019-02-25T15:29:51.674Z,3.90
2019-02-25T15:32:18.414Z,5.00
2019-02-25T15:34:46.551Z,3.80
2019-02-25T15:37:13.777Z,3.87
2019-02-25T15:39:41.872Z,3.63
2019-02-25T15:42:05.345Z,3.50
2019-02-25T15:44:32.086Z,3.80
2019-02-25T15:47:00.244Z,3.40
2019-02-25T15:49:26.071Z,3.73
2019-02-25T15:51:52.429Z,4.37
2019-02-25T15:54:19.142Z,4.27
2019-02-25T15:56:45.869Z,3.90
2019-02-25T15:59:12.633Z,4.20
2019-02-25T16:01:39.374Z,3.80
2019-02-25T16:04:07.129Z,3.77
2019-02-25T16:06:33.538Z,3.77
2019-02-25T16:09:00.868Z,3.83
2019-02-25T16:11:26.297Z,3.80
2019-02-25T16:13:53.551Z,4.62
2019-02-25T16:16:20.082Z,4.00
2019-02-25T16:21:26.618Z,4.30
2019-02-25T16:23:51.955Z,4.30
2019-02-25T16:26:20.119Z,5.77
2019-02-25T16:28:45.539Z,4.57
2019-02-25T16:31:14.827Z,4.67
2019-02-25T16:33:40.011Z,4.43
2019-02-25T16:36:07.865Z,4.37
2019-02-25T16:38:34.656Z,5.13
2019-02-25T16:41:00.919Z,4.87
2019-02-25T16:43:27.094Z,4.53
2019-02-25T16:45:53.874Z,5.23
2019-02-25T16:48:24.247Z,4.75
2019-02-25T16:50:47.542Z,4.63
2019-02-25T16:53:15.426Z,4.83
2019-02-25T16:55:42.792Z,4.67
2019-02-25T16:58:12.453Z,5.17
2019-02-25T17:00:35.488Z,4.37
2019-02-25T17:03:03.725Z,4.43
2019-02-25T17:05:28.299Z,5.47
2019-02-25T17:07:56.142Z,5.67
2019-02-25T17:10:24.073Z,5.50
2019-02-25T17:12:50.026Z,5.27
2019-02-25T17:15:15.538Z,6.00
2019-02-25T17:17:42.278Z,5.33
2019-02-25T17:20:13.010Z,4.93
2019-02-25T17:22:37.530Z,6.00
2019-02-25T17:25:08.154Z,5.33
2019-02-25T17:27:31.090Z,5.43
2019-02-25T17:29:59.726Z,5.17
2019-02-25T17:32:25.458Z,4.93
2019-02-25T17:34:51.354Z,5.87
2019-02-25T17:37:18.082Z,5.03
2019-02-25T17:39:44.901Z,5.60
2019-02-25T17:42:11.803Z,6.00
2019-02-25T17:44:38.806Z,5.60
2019-02-25T17:47:06.712Z,5.40
2019-02-25T17:49:32.322Z,6.50
2019-02-25T17:51:59.875Z,5.10
2019-02-25T17:54:25.289Z,5.50
2019-02-25T17:56:51.994Z,6.30
2019-02-25T17:59:18.776Z,6.67
2019-02-25T18:01:46.291Z,6.20
2019-02-25T18:04:12.194Z,6.40
2019-02-25T18:06:40.983Z,6.47
2019-02-25T18:09:07.188Z,5.60
2019-02-25T18:11:33.898Z,6.07
2019-02-25T18:14:00.635Z,6.27
2019-02-25T18:16:27.371Z,6.40
2019-02-25T18:18:54.449Z,6.30
2019-02-25T18:21:20.825Z,5.30
2019-02-25T18:23:49.413Z,6.25
2019-02-25T18:26:14.877Z,5.63
2019-02-25T18:28:42.068Z,6.37
2019-02-25T18:31:10.821Z,6.10
2019-02-25T18:33:34.821Z,5.70
2019-02-25T18:36:02.423Z,6.50
2019-02-25T18:38:29.574Z,6.80
2019-02-25T18:40:55.017Z,6.67
2019-02-25T18:43:22.581Z,5.93
2019-02-25T18:45:48.502Z,6.20
2019-02-25T18:48:16.831Z,5.70
2019-02-25T18:50:44.841Z,5.47
2019-02-25T18:53:08.753Z,5.60
2019-02-25T18:55:35.478Z,5.60
2019-02-25T18:58:02.218Z,6.43
2019-02-25T19:00:32.206Z,5.70
2019-02-25T19:03:00.344Z,6.30
2019-02-25T19:05:27.158Z,5.10
2019-02-25T19:07:53.292Z,5.20
2019-02-25T19:10:20.480Z,6.13
2019-02-25T19:12:47.973Z,6.20
2019-02-25T19:15:12.874Z,6.13
2019-02-25T19:17:39.601Z,5.63
2019-02-25T19:20:06.466Z,5.73
2019-02-25T19:22:33.959Z,5.63
2019-02-25T19:25:00.056Z,6.27
2019-02-25T19:27:27.783Z,5.97
2019-02-25T19:29:57.437Z,6.07
2019-02-25T19:32:20.942Z,6.33
2019-02-25T19:34:47.339Z,6.30
2019-02-25T19:37:14.526Z,6.20
2019-02-25T19:39:41.474Z,6.27
2019-02-25T19:42:07.740Z,6.80
2019-02-25T19:44:36.309Z,6.47
2019-02-25T19:47:01.350Z,6.40
2019-02-25T19:49:28.086Z,5.83
2019-02-25T19:51:54.918Z,7.10
2019-02-25T19:54:21.653Z,7.30
2019-02-25T19:56:50.672Z,6.27
2019-02-25T19:59:15.218Z,6.17
2019-02-25T20:01:41.946Z,5.60
2019-02-25T20:04:09.153Z,6.00
2019-02-25T20:06:35.434Z,6.03
2019-02-25T20:09:02.202Z,6.10
2019-02-25T20:11:29.012Z,5.87
2019-02-25T20:13:55.772Z,6.35
2019-02-25T20:16:22.959Z,4.90
2019-02-25T20:18:49.201Z,6.23
2019-02-25T20:21:15.925Z,5.73
2019-02-25T20:23:42.661Z,5.60
2019-02-25T20:26:11.293Z,5.40
2019-02-25T20:28:36.126Z,6.78
2019-02-25T20:31:02.844Z,6.07
2019-02-25T20:33:31.932Z,6.50
2019-02-25T20:35:58.368Z,6.63
2019-02-25T20:38:26.852Z,6.70
2019-02-25T20:40:51.223Z,6.00
2019-02-25T20:43:19.298Z,6.00
2019-02-25T20:45:43.226Z,5.37
2019-02-25T20:48:09.958Z,5.80
2019-02-25T20:50:36.708Z,6.72
2019-02-25T20:53:05.941Z,6.65
2019-02-25T20:55:31.723Z,6.37
2019-02-25T20:57:56.882Z,7.50
2019-02-25T21:00:23.626Z,6.80
2019-02-25T21:02:50.348Z,6.10
2019-02-25T21:05:19.493Z,6.07
2019-02-25T21:07:43.838Z,6.90
2019-02-25T21:10:11.359Z,6.30
2019-02-25T21:12:38.122Z,6.47
2019-02-25T21:15:05.126Z,6.93
2019-02-25T21:17:33.225Z,6.87
2019-02-25T21:20:00.245Z,8.70
2019-02-25T21:22:27.263Z,7.80
2019-02-25T21:24:55.740Z,6.53
2019-02-25T21:27:18.879Z,6.70
2019-02-25T21:29:45.589Z,7.10
2019-02-25T21:32:15.047Z,6.27
2019-02-25T21:34:39.046Z,6.57
2019-02-25T21:37:05.769Z,6.80
2019-02-25T21:39:34.319Z,5.90
2019-02-25T21:41:59.264Z,6.30
2019-02-25T21:44:28.473Z,6.47
2019-02-25T21:46:54.013Z,6.17
2019-02-25T21:49:20.239Z,6.53
2019-02-25T21:51:48.005Z,6.30
2019-02-25T21:54:12.994Z,6.03
2019-02-25T21:56:39.718Z,6.00
2019-02-25T21:59:08.282Z,5.70
2019-02-25T22:01:34.612Z,6.00
2019-02-25T22:04:00.497Z,6.10
2019-02-25T22:06:29.036Z,6.07
2019-02-25T22:08:54.574Z,6.80
2019-02-25T22:11:22.182Z,6.93
2019-02-25T22:13:47.450Z,7.97
2019-02-25T22:16:14.193Z,6.60
2019-02-25T22:18:40.926Z,6.47
2019-02-25T22:21:09.423Z,6.40
2019-02-25T22:23:35.436Z,6.30
2019-02-25T22:26:01.163Z,7.60
2019-02-25T22:28:28.819Z,6.17
2019-02-25T22:30:54.622Z,6.87
2019-02-25T22:33:27.443Z,6.60
2019-02-25T22:35:49.914Z,7.50
2019-02-25T22:38:14.869Z,7.30
2019-02-25T22:40:41.606Z,6.90
2019-02-25T22:43:10.069Z,7.47
2019-02-25T22:45:36.004Z,7.27
2019-02-25T22:48:01.785Z,6.83
2019-02-25T22:50:29.137Z,8.33
2019-02-25T22:52:58.433Z,6.53
2019-02-25T22:55:22.709Z,7.43
2019-02-25T22:57:53.525Z,7.73
2019-02-25T23:00:25.754Z,6.83
2019-02-25T23:02:54.513Z,7.17
2019-02-25T23:05:21.125Z,5.97
2019-02-25T23:07:47.994Z,7.27
2019-02-25T23:10:13.364Z,6.23
2019-02-25T23:12:39.486Z,7.55
2019-02-25T23:15:06.274Z,6.97
2019-02-25T23:17:35.107Z,5.87
2019-02-25T23:20:00.140Z,7.10
2019-02-25T23:22:28.088Z,6.80
2019-02-25T23:24:53.182Z,6.97
2019-02-25T23:27:19.929Z,6.50
2019-02-25T23:29:48.283Z,7.58
2019-02-25T23:32:15.362Z,7.17
2019-02-25T23:34:42.612Z,5.90
2019-02-25T23:37:08.407Z,6.63
2019-02-25T23:39:36.018Z,6.30
2019-02-25T23:42:00.668Z,6.00
2019-02-25T23:44:27.137Z,6.47
2019-02-25T23:46:57.639Z,6.40
2019-02-25T23:49:27.055Z,6.30
2019-02-25T23:51:48.121Z,5.87
2019-02-25T23:54:16.008Z,6.65
2019-02-25T23:56:40.802Z,6.47
2019-02-25T23:59:10.765Z,6.47
